sensor_id;sensor_type;location;lat;lon;timestamp;temperature;humidity
63051;SHT30;49136;47.416;19.402;2022-08-01T00:00:11;14.68;88.58
63051;SHT30;49136;47.416;19.402;2022-08-01T00:02:37;14.62;88.55
63051;SHT30;49136;47.416;19.402;2022-08-01T00:05:03;14.51;88.90
63051;SHT30;49136;47.416;19.402;2022-08-01T00:07:31;14.45;88.79
63051;SHT30;49136;47.416;19.402;2022-08-01T00:09:57;14.48;88.76
63051;SHT30;49136;47.416;19.402;2022-08-01T00:12:22;14.41;89.18
63051;SHT30;49136;47.416;19.402;2022-08-01T00:14:47;14.38;89.52
63051;SHT30;49136;47.416;19.402;2022-08-01T00:17:13;14.34;89.46
63051;SHT30;49136;47.416;19.402;2022-08-01T00:19:38;14.31;89.48
63051;SHT30;49136;47.416;19.402;2022-08-01T00:22:04;14.32;89.55
63051;SHT30;49136;47.416;19.402;2022-08-01T00:24:29;14.17;89.86
63051;SHT30;49136;47.416;19.402;2022-08-01T00:26:54;14.14;90.29
63051;SHT30;49136;47.416;19.402;2022-08-01T00:29:20;14.12;90.34
63051;SHT30;49136;47.416;19.402;2022-08-01T00:31:45;14.03;90.56
63051;SHT30;49136;47.416;19.402;2022-08-01T00:34:11;14.05;90.55
63051;SHT30;49136;47.416;19.402;2022-08-01T00:36:36;14.05;91.03
63051;SHT30;49136;47.416;19.402;2022-08-01T00:39:02;13.99;90.73
63051;SHT30;49136;47.416;19.402;2022-08-01T00:41:27;13.95;90.83
63051;SHT30;49136;47.416;19.402;2022-08-01T00:43:53;13.89;90.69
63051;SHT30;49136;47.416;19.402;2022-08-01T00:46:19;13.87;90.73
63051;SHT30;49136;47.416;19.402;2022-08-01T00:48:44;13.83;90.92
63051;SHT30;49136;47.416;19.402;2022-08-01T00:51:10;13.71;91.03
63051;SHT30;49136;47.416;19.402;2022-08-01T00:53:35;13.69;90.96
63051;SHT30;49136;47.416;19.402;2022-08-01T00:56:01;13.76;91.13
63051;SHT30;49136;47.416;19.402;2022-08-01T00:58:27;13.73;91.51
63051;SHT30;49136;47.416;19.402;2022-08-01T01:00:55;13.73;91.80
63051;SHT30;49136;47.416;19.402;2022-08-01T01:03:22;13.71;92.03
63051;SHT30;49136;47.416;19.402;2022-08-01T01:06:14;13.71;92.17
63051;SHT30;49136;47.416;19.402;2022-08-01T01:08:49;13.62;92.27
63051;SHT30;49136;47.416;19.402;2022-08-01T01:11:28;13.58;92.42
63051;SHT30;49136;47.416;19.402;2022-08-01T01:14:00;13.53;92.68
63051;SHT30;49136;47.416;19.402;2022-08-01T01:16:27;13.48;92.59
63051;SHT30;49136;47.416;19.402;2022-08-01T01:18:58;13.41;92.63
63051;SHT30;49136;47.416;19.402;2022-08-01T01:21:52;13.38;92.81
63051;SHT30;49136;47.416;19.402;2022-08-01T01:24:39;13.37;92.99
63051;SHT30;49136;47.416;19.402;2022-08-01T01:30:02;13.20;92.95
63051;SHT30;49136;47.416;19.402;2022-08-01T01:32:33;13.17;93.12
63051;SHT30;49136;47.416;19.402;2022-08-01T01:35:07;13.03;93.17
63051;SHT30;49136;47.416;19.402;2022-08-01T01:37:35;13.02;93.37
63051;SHT30;49136;47.416;19.402;2022-08-01T01:40:02;12.95;93.44
63051;SHT30;49136;47.416;19.402;2022-08-01T01:42:30;12.96;93.59
63051;SHT30;49136;47.416;19.402;2022-08-01T01:44:58;12.85;93.65
63051;SHT30;49136;47.416;19.402;2022-08-01T01:47:25;12.88;93.64
63051;SHT30;49136;47.416;19.402;2022-08-01T01:49:53;12.89;93.75
63051;SHT30;49136;47.416;19.402;2022-08-01T01:52:21;12.77;93.68
63051;SHT30;49136;47.416;19.402;2022-08-01T01:54:49;12.81;93.79
63051;SHT30;49136;47.416;19.402;2022-08-01T01:57:15;12.77;93.95
63051;SHT30;49136;47.416;19.402;2022-08-01T01:59:43;12.72;94.04
63051;SHT30;49136;47.416;19.402;2022-08-01T02:02:10;12.77;94.21
63051;SHT30;49136;47.416;19.402;2022-08-01T02:04:40;12.75;94.32
63051;SHT30;49136;47.416;19.402;2022-08-01T02:07:07;12.71;94.32
63051;SHT30;49136;47.416;19.402;2022-08-01T02:09:35;12.72;94.27
63051;SHT30;49136;47.416;19.402;2022-08-01T02:12:03;12.68;94.24
63051;SHT30;49136;47.416;19.402;2022-08-01T02:14:29;12.69;94.33
63051;SHT30;49136;47.416;19.402;2022-08-01T02:16:57;12.71;94.43
63051;SHT30;49136;47.416;19.402;2022-08-01T02:19:24;12.61;94.50
63051;SHT30;49136;47.416;19.402;2022-08-01T02:21:57;12.64;94.54
63051;SHT30;49136;47.416;19.402;2022-08-01T02:26:57;12.65;94.57
63051;SHT30;49136;47.416;19.402;2022-08-01T02:29:28;12.62;94.61
63051;SHT30;49136;47.416;19.402;2022-08-01T02:31:58;12.55;94.62
63051;SHT30;49136;47.416;19.402;2022-08-01T02:34:28;12.43;94.62
63051;SHT30;49136;47.416;19.402;2022-08-01T02:36:58;12.38;94.65
63051;SHT30;49136;47.416;19.402;2022-08-01T02:39:26;12.37;94.70
63051;SHT30;49136;47.416;19.402;2022-08-01T02:42:00;12.38;94.74
63051;SHT30;49136;47.416;19.402;2022-08-01T02:44:36;12.33;94.69
63051;SHT30;49136;47.416;19.402;2022-08-01T02:47:03;12.40;94.68
63051;SHT30;49136;47.416;19.402;2022-08-01T02:49:33;12.38;94.63
63051;SHT30;49136;47.416;19.402;2022-08-01T02:52:04;12.45;94.69
63051;SHT30;49136;47.416;19.402;2022-08-01T02:54:30;12.48;94.77
63051;SHT30;49136;47.416;19.402;2022-08-01T02:56:56;12.43;94.75
63051;SHT30;49136;47.416;19.402;2022-08-01T02:59:24;12.41;94.64
63051;SHT30;49136;47.416;19.402;2022-08-01T03:01:53;12.50;94.50
63051;SHT30;49136;47.416;19.402;2022-08-01T03:04:21;12.64;94.16
63051;SHT30;49136;47.416;19.402;2022-08-01T03:06:47;12.72;93.99
63051;SHT30;49136;47.416;19.402;2022-08-01T03:09:14;12.72;93.88
63051;SHT30;49136;47.416;19.402;2022-08-01T03:11:41;12.72;93.95
63051;SHT30;49136;47.416;19.402;2022-08-01T03:14:09;12.68;93.96
63051;SHT30;49136;47.416;19.402;2022-08-01T03:16:37;12.64;93.98
63051;SHT30;49136;47.416;19.402;2022-08-01T03:19:03;12.72;94.12
63051;SHT30;49136;47.416;19.402;2022-08-01T03:21:31;12.64;94.15
63051;SHT30;49136;47.416;19.402;2022-08-01T03:23:59;12.65;94.17
63051;SHT30;49136;47.416;19.402;2022-08-01T03:26:27;12.65;94.31
63051;SHT30;49136;47.416;19.402;2022-08-01T03:28:58;12.67;94.36
63051;SHT30;49136;47.416;19.402;2022-08-01T03:31:25;12.65;94.40
63051;SHT30;49136;47.416;19.402;2022-08-01T03:33:51;12.62;94.38
63051;SHT30;49136;47.416;19.402;2022-08-01T03:36:21;12.67;94.31
63051;SHT30;49136;47.416;19.402;2022-08-01T03:38:50;12.71;93.93
63051;SHT30;49136;47.416;19.402;2022-08-01T03:41:20;12.75;93.95
63051;SHT30;49136;47.416;19.402;2022-08-01T03:43:58;12.81;93.93
63051;SHT30;49136;47.416;19.402;2022-08-01T03:46:29;12.88;94.07
63051;SHT30;49136;47.416;19.402;2022-08-01T03:49:00;12.86;94.01
63051;SHT30;49136;47.416;19.402;2022-08-01T03:51:27;12.88;93.81
63051;SHT30;49136;47.416;19.402;2022-08-01T03:53:54;12.93;93.45
63051;SHT30;49136;47.416;19.402;2022-08-01T03:56:21;12.96;93.46
63051;SHT30;49136;47.416;19.402;2022-08-01T03:58:49;13.04;93.47
63051;SHT30;49136;47.416;19.402;2022-08-01T04:01:16;13.16;93.58
63051;SHT30;49136;47.416;19.402;2022-08-01T04:03:43;13.14;93.28
63051;SHT30;49136;47.416;19.402;2022-08-01T04:06:08;13.26;93.31
63051;SHT30;49136;47.416;19.402;2022-08-01T04:08:36;13.30;93.49
63051;SHT30;49136;47.416;19.402;2022-08-01T04:11:02;13.34;93.45
63051;SHT30;49136;47.416;19.402;2022-08-01T04:13:28;13.36;93.47
63051;SHT30;49136;47.416;19.402;2022-08-01T04:15:53;13.47;93.56
63051;SHT30;49136;47.416;19.402;2022-08-01T04:18:18;13.53;93.51
63051;SHT30;49136;47.416;19.402;2022-08-01T04:20:46;13.59;93.58
63051;SHT30;49136;47.416;19.402;2022-08-01T04:23:14;13.58;93.24
63051;SHT30;49136;47.416;19.402;2022-08-01T04:25:42;13.68;92.99
63051;SHT30;49136;47.416;19.402;2022-08-01T04:28:10;13.75;92.92
63051;SHT30;49136;47.416;19.402;2022-08-01T04:30:42;13.87;92.94
63051;SHT30;49136;47.416;19.402;2022-08-01T04:33:10;14.00;92.94
63051;SHT30;49136;47.416;19.402;2022-08-01T04:35:38;14.12;92.91
63051;SHT30;49136;47.416;19.402;2022-08-01T04:38:07;14.24;92.48
63051;SHT30;49136;47.416;19.402;2022-08-01T04:40:35;14.34;91.93
63051;SHT30;49136;47.416;19.402;2022-08-01T04:43:01;14.44;91.29
63051;SHT30;49136;47.416;19.402;2022-08-01T04:45:27;14.58;90.96
63051;SHT30;49136;47.416;19.402;2022-08-01T04:47:54;14.77;90.48
63051;SHT30;49136;47.416;19.402;2022-08-01T04:50:20;14.89;90.13
63051;SHT30;49136;47.416;19.402;2022-08-01T04:52:47;15.10;90.05
63051;SHT30;49136;47.416;19.402;2022-08-01T04:55:12;15.30;89.68
63051;SHT30;49136;47.416;19.402;2022-08-01T04:57:39;15.56;88.98
63051;SHT30;49136;47.416;19.402;2022-08-01T05:00:07;15.86;88.49
63051;SHT30;49136;47.416;19.402;2022-08-01T05:02:33;16.17;88.19
63051;SHT30;49136;47.416;19.402;2022-08-01T05:04:58;16.55;87.67
63051;SHT30;49136;47.416;19.402;2022-08-01T05:07:24;16.87;86.93
63051;SHT30;49136;47.416;19.402;2022-08-01T05:09:50;17.19;86.84
63051;SHT30;49136;47.416;19.402;2022-08-01T05:12:16;17.47;86.48
63051;SHT30;49136;47.416;19.402;2022-08-01T05:14:41;17.78;86.44
63051;SHT30;49136;47.416;19.402;2022-08-01T05:17:07;18.08;86.39
63051;SHT30;49136;47.416;19.402;2022-08-01T05:19:34;18.39;85.48
63051;SHT30;49136;47.416;19.402;2022-08-01T05:22:01;18.74;85.74
63051;SHT30;49136;47.416;19.402;2022-08-01T05:24:27;19.02;83.86
63051;SHT30;49136;47.416;19.402;2022-08-01T05:26:54;19.35;83.35
63051;SHT30;49136;47.416;19.402;2022-08-01T05:29:20;19.76;82.31
63051;SHT30;49136;47.416;19.402;2022-08-01T05:31:45;20.06;79.87
63051;SHT30;49136;47.416;19.402;2022-08-01T05:34:10;20.47;81.90
63051;SHT30;49136;47.416;19.402;2022-08-01T05:36:36;20.72;79.97
63051;SHT30;49136;47.416;19.402;2022-08-01T05:39:03;20.97;78.54
63051;SHT30;49136;47.416;19.402;2022-08-01T05:41:29;21.31;76.07
63051;SHT30;49136;47.416;19.402;2022-08-01T05:43:55;21.49;73.81
63051;SHT30;49136;47.416;19.402;2022-08-01T05:46:20;21.97;73.54
63051;SHT30;49136;47.416;19.402;2022-08-01T05:48:45;22.22;72.27
63051;SHT30;49136;47.416;19.402;2022-08-01T05:51:11;22.66;70.55
63051;SHT30;49136;47.416;19.402;2022-08-01T05:53:36;22.81;72.10
63051;SHT30;49136;47.416;19.402;2022-08-01T05:56:02;23.00;69.21
63051;SHT30;49136;47.416;19.402;2022-08-01T05:58:27;23.03;64.95
63051;SHT30;49136;47.416;19.402;2022-08-01T06:00:53;23.30;65.94
63051;SHT30;49136;47.416;19.402;2022-08-01T06:03:18;23.69;64.94
63051;SHT30;49136;47.416;19.402;2022-08-01T06:05:44;23.69;62.43
63051;SHT30;49136;47.416;19.402;2022-08-01T06:08:09;23.75;65.43
63051;SHT30;49136;47.416;19.402;2022-08-01T06:10:35;23.74;62.46
63051;SHT30;49136;47.416;19.402;2022-08-01T06:13:01;23.98;63.78
63051;SHT30;49136;47.416;19.402;2022-08-01T06:15:31;23.97;62.31
63051;SHT30;49136;47.416;19.402;2022-08-01T06:17:57;24.23;61.59
63051;SHT30;49136;47.416;19.402;2022-08-01T06:20:22;24.22;63.25
63051;SHT30;49136;47.416;19.402;2022-08-01T06:22:48;24.50;61.97
63051;SHT30;49136;47.416;19.402;2022-08-01T06:25:13;24.78;63.26
63051;SHT30;49136;47.416;19.402;2022-08-01T06:27:38;25.08;62.47
63051;SHT30;49136;47.416;19.402;2022-08-01T06:30:05;25.27;59.70
63051;SHT30;49136;47.416;19.402;2022-08-01T06:32:33;25.25;60.55
63051;SHT30;49136;47.416;19.402;2022-08-01T06:34:58;25.30;59.39
63051;SHT30;49136;47.416;19.402;2022-08-01T06:37:28;25.15;59.95
63051;SHT30;49136;47.416;19.402;2022-08-01T06:39:54;25.49;59.23
63051;SHT30;49136;47.416;19.402;2022-08-01T06:42:19;25.57;57.47
63051;SHT30;49136;47.416;19.402;2022-08-01T06:44:45;25.74;58.78
63051;SHT30;49136;47.416;19.402;2022-08-01T06:47:10;25.81;58.16
63051;SHT30;49136;47.416;19.402;2022-08-01T06:49:36;25.91;57.80
63051;SHT30;49136;47.416;19.402;2022-08-01T06:52:01;26.08;59.70
63051;SHT30;49136;47.416;19.402;2022-08-01T06:54:28;26.15;59.64
63051;SHT30;49136;47.416;19.402;2022-08-01T06:56:53;25.95;56.39
63051;SHT30;49136;47.416;19.402;2022-08-01T06:59:18;25.89;55.32
63051;SHT30;49136;47.416;19.402;2022-08-01T07:01:44;25.92;56.49
63051;SHT30;49136;47.416;19.402;2022-08-01T07:04:09;26.05;56.16
63051;SHT30;49136;47.416;19.402;2022-08-01T07:06:34;25.95;55.36
63051;SHT30;49136;47.416;19.402;2022-08-01T07:09:00;26.01;59.19
63051;SHT30;49136;47.416;19.402;2022-08-01T07:11:26;25.98;57.66
63051;SHT30;49136;47.416;19.402;2022-08-01T07:13:52;26.32;56.63
63051;SHT30;49136;47.416;19.402;2022-08-01T07:16:17;26.51;55.21
63051;SHT30;49136;47.416;19.402;2022-08-01T07:18:43;26.61;55.16
63051;SHT30;49136;47.416;19.402;2022-08-01T07:21:09;26.89;55.02
63051;SHT30;49136;47.416;19.402;2022-08-01T07:23:35;26.93;54.53
63051;SHT30;49136;47.416;19.402;2022-08-01T07:26:00;26.82;54.32
63051;SHT30;49136;47.416;19.402;2022-08-01T07:28:29;26.79;54.19
63051;SHT30;49136;47.416;19.402;2022-08-01T07:30:55;26.84;54.82
63051;SHT30;49136;47.416;19.402;2022-08-01T07:33:20;26.91;54.71
63051;SHT30;49136;47.416;19.402;2022-08-01T07:35:47;26.89;53.25
63051;SHT30;49136;47.416;19.402;2022-08-01T07:38:12;26.89;55.84
63051;SHT30;49136;47.416;19.402;2022-08-01T07:40:39;26.84;54.19
63051;SHT30;49136;47.416;19.402;2022-08-01T07:43:04;26.98;54.69
63051;SHT30;49136;47.416;19.402;2022-08-01T07:45:30;26.81;52.65
63051;SHT30;49136;47.416;19.402;2022-08-01T07:47:55;26.72;53.19
63051;SHT30;49136;47.416;19.402;2022-08-01T07:50:21;26.17;52.59
63051;SHT30;49136;47.416;19.402;2022-08-01T07:52:46;26.61;53.72
63051;SHT30;49136;47.416;19.402;2022-08-01T07:55:12;26.74;51.67
63051;SHT30;49136;47.416;19.402;2022-08-01T07:57:37;26.72;52.03
63051;SHT30;49136;47.416;19.402;2022-08-01T08:00:04;26.82;54.66
63051;SHT30;49136;47.416;19.402;2022-08-01T08:02:31;26.95;52.60
63051;SHT30;49136;47.416;19.402;2022-08-01T08:04:57;27.09;51.99
63051;SHT30;49136;47.416;19.402;2022-08-01T08:07:22;27.10;50.60
63051;SHT30;49136;47.416;19.402;2022-08-01T08:09:47;27.09;51.82
63051;SHT30;49136;47.416;19.402;2022-08-01T08:12:13;27.14;52.36
63051;SHT30;49136;47.416;19.402;2022-08-01T08:14:38;27.40;51.86
63051;SHT30;49136;47.416;19.402;2022-08-01T08:17:05;27.68;51.73
63051;SHT30;49136;47.416;19.402;2022-08-01T08:19:30;27.58;49.33
63051;SHT30;49136;47.416;19.402;2022-08-01T08:21:58;27.58;50.31
63051;SHT30;49136;47.416;19.402;2022-08-01T08:24:24;27.50;50.10
63051;SHT30;49136;47.416;19.402;2022-08-01T08:26:53;27.65;49.85
63051;SHT30;49136;47.416;19.402;2022-08-01T08:29:20;27.78;49.60
63051;SHT30;49136;47.416;19.402;2022-08-01T08:31:45;27.93;51.18
63051;SHT30;49136;47.416;19.402;2022-08-01T08:34:11;28.24;49.18
63051;SHT30;49136;47.416;19.402;2022-08-01T08:36:37;28.27;47.24
63051;SHT30;49136;47.416;19.402;2022-08-01T08:39:03;27.89;46.55
63051;SHT30;49136;47.416;19.402;2022-08-01T08:41:30;27.97;46.71
63051;SHT30;49136;47.416;19.402;2022-08-01T08:43:56;28.37;47.66
63051;SHT30;49136;47.416;19.402;2022-08-01T08:46:23;28.28;45.29
63051;SHT30;49136;47.416;19.402;2022-08-01T08:48:51;28.38;46.63
63051;SHT30;49136;47.416;19.402;2022-08-01T08:51:17;28.51;46.43
63051;SHT30;49136;47.416;19.402;2022-08-01T08:53:43;28.44;47.34
63051;SHT30;49136;47.416;19.402;2022-08-01T08:56:12;28.49;45.25
63051;SHT30;49136;47.416;19.402;2022-08-01T08:58:38;28.55;45.23
63051;SHT30;49136;47.416;19.402;2022-08-01T09:01:06;28.69;44.76
63051;SHT30;49136;47.416;19.402;2022-08-01T09:03:32;28.62;46.09
63051;SHT30;49136;47.416;19.402;2022-08-01T09:05:58;28.52;42.27
63051;SHT30;49136;47.416;19.402;2022-08-01T09:08:23;28.66;42.25
63051;SHT30;49136;47.416;19.402;2022-08-01T09:10:48;28.44;43.37
63051;SHT30;49136;47.416;19.402;2022-08-01T09:13:15;28.45;42.36
63051;SHT30;49136;47.416;19.402;2022-08-01T09:15:45;28.76;43.75
63051;SHT30;49136;47.416;19.402;2022-08-01T09:18:33;28.92;43.31
63051;SHT30;49136;47.416;19.402;2022-08-01T09:21:21;29.17;44.92
63051;SHT30;49136;47.416;19.402;2022-08-01T09:23:50;29.15;42.54
63051;SHT30;49136;47.416;19.402;2022-08-01T09:26:19;29.11;42.50
63051;SHT30;49136;47.416;19.402;2022-08-01T09:28:46;29.07;44.53
63051;SHT30;49136;47.416;19.402;2022-08-01T09:31:14;29.13;41.61
63051;SHT30;49136;47.416;19.402;2022-08-01T09:33:48;29.39;43.23
63051;SHT30;49136;47.416;19.402;2022-08-01T09:36:13;29.79;43.80
63051;SHT30;49136;47.416;19.402;2022-08-01T09:38:39;29.42;42.36
63051;SHT30;49136;47.416;19.402;2022-08-01T09:41:04;29.63;42.66
63051;SHT30;49136;47.416;19.402;2022-08-01T09:43:30;29.72;42.44
63051;SHT30;49136;47.416;19.402;2022-08-01T09:45:57;29.80;41.35
63051;SHT30;49136;47.416;19.402;2022-08-01T09:48:22;29.65;42.00
63051;SHT30;49136;47.416;19.402;2022-08-01T09:50:52;29.18;40.88
63051;SHT30;49136;47.416;19.402;2022-08-01T09:53:18;29.14;41.25
63051;SHT30;49136;47.416;19.402;2022-08-01T09:55:43;29.34;43.87
63051;SHT30;49136;47.416;19.402;2022-08-01T09:58:12;29.69;44.78
63051;SHT30;49136;47.416;19.402;2022-08-01T10:00:38;29.49;45.57
63051;SHT30;49136;47.416;19.402;2022-08-01T10:03:23;29.49;45.45
63051;SHT30;49136;47.416;19.402;2022-08-01T10:05:49;29.30;44.57
63051;SHT30;49136;47.416;19.402;2022-08-01T10:08:16;29.07;45.96
63051;SHT30;49136;47.416;19.402;2022-08-01T10:10:43;29.52;45.44
63051;SHT30;49136;47.416;19.402;2022-08-01T10:13:28;29.83;46.70
63051;SHT30;49136;47.416;19.402;2022-08-01T10:15:54;29.58;44.22
63051;SHT30;49136;47.416;19.402;2022-08-01T10:18:19;29.27;43.70
63051;SHT30;49136;47.416;19.402;2022-08-01T10:20:46;29.17;43.95
63051;SHT30;49136;47.416;19.402;2022-08-01T10:23:12;29.03;43.47
63051;SHT30;49136;47.416;19.402;2022-08-01T10:25:40;28.55;44.74
63051;SHT30;49136;47.416;19.402;2022-08-01T10:28:16;29.08;44.98
63051;SHT30;49136;47.416;19.402;2022-08-01T10:30:43;28.95;43.71
63051;SHT30;49136;47.416;19.402;2022-08-01T10:33:10;29.07;43.33
63051;SHT30;49136;47.416;19.402;2022-08-01T10:35:37;29.80;43.91
63051;SHT30;49136;47.416;19.402;2022-08-01T10:38:03;29.74;42.09
63051;SHT30;49136;47.416;19.402;2022-08-01T10:40:29;29.84;42.46
63051;SHT30;49136;47.416;19.402;2022-08-01T10:42:56;29.72;41.40
63051;SHT30;49136;47.416;19.402;2022-08-01T10:45:22;29.51;41.90
63051;SHT30;49136;47.416;19.402;2022-08-01T10:48:09;29.27;42.90
63051;SHT30;49136;47.416;19.402;2022-08-01T10:50:49;29.63;42.18
63051;SHT30;49136;47.416;19.402;2022-08-01T10:53:26;30.00;43.66
63051;SHT30;49136;47.416;19.402;2022-08-01T10:56:03;30.29;42.65
63051;SHT30;49136;47.416;19.402;2022-08-01T10:58:35;30.21;41.89
63051;SHT30;49136;47.416;19.402;2022-08-01T11:04:01;30.11;43.85
63051;SHT30;49136;47.416;19.402;2022-08-01T11:09:02;29.96;43.93
63051;SHT30;49136;47.416;19.402;2022-08-01T11:11:28;29.65;44.32
63051;SHT30;49136;47.416;19.402;2022-08-01T11:16:51;29.93;45.10
63051;SHT30;49136;47.416;19.402;2022-08-01T11:19:16;29.90;43.20
63051;SHT30;49136;47.416;19.402;2022-08-01T11:27:26;29.37;42.74
63051;SHT30;49136;47.416;19.402;2022-08-01T11:32:54;29.73;43.09
63051;SHT30;49136;47.416;19.402;2022-08-01T11:35:24;29.62;40.84
63051;SHT30;49136;47.416;19.402;2022-08-01T11:37:52;29.72;41.06
63051;SHT30;49136;47.416;19.402;2022-08-01T11:42:47;29.67;40.20
63051;SHT30;49136;47.416;19.402;2022-08-01T11:45:13;29.59;39.61
63051;SHT30;49136;47.416;19.402;2022-08-01T11:47:49;29.39;39.83
63051;SHT30;49136;47.416;19.402;2022-08-01T11:50:44;29.56;40.56
63051;SHT30;49136;47.416;19.402;2022-08-01T11:53:09;30.00;40.96
63051;SHT30;49136;47.416;19.402;2022-08-01T11:55:35;29.90;42.22
63051;SHT30;49136;47.416;19.402;2022-08-01T11:58:06;29.91;40.05
63051;SHT30;49136;47.416;19.402;2022-08-01T12:00:32;29.98;39.80
63051;SHT30;49136;47.416;19.402;2022-08-01T12:03:06;29.24;39.21
63051;SHT30;49136;47.416;19.402;2022-08-01T12:05:33;28.95;38.53
63051;SHT30;49136;47.416;19.402;2022-08-01T12:08:00;28.99;38.58
63051;SHT30;49136;47.416;19.402;2022-08-01T12:10:32;29.31;44.23
63051;SHT30;49136;47.416;19.402;2022-08-01T12:13:04;29.73;42.31
63051;SHT30;49136;47.416;19.402;2022-08-01T12:15:37;29.67;40.35
63051;SHT30;49136;47.416;19.402;2022-08-01T12:18:04;29.72;40.62
63051;SHT30;49136;47.416;19.402;2022-08-01T12:20:35;29.52;41.07
63051;SHT30;49136;47.416;19.402;2022-08-01T12:23:03;29.67;40.28
63051;SHT30;49136;47.416;19.402;2022-08-01T12:25:31;29.84;40.18
63051;SHT30;49136;47.416;19.402;2022-08-01T12:28:06;30.03;40.01
63051;SHT30;49136;47.416;19.402;2022-08-01T12:30:32;30.41;41.51
63051;SHT30;49136;47.416;19.402;2022-08-01T12:33:03;30.42;41.55
63051;SHT30;49136;47.416;19.402;2022-08-01T12:35:30;30.17;39.62
63051;SHT30;49136;47.416;19.402;2022-08-01T12:38:02;30.45;39.69
63051;SHT30;49136;47.416;19.402;2022-08-01T12:40:33;30.51;40.79
63051;SHT30;49136;47.416;19.402;2022-08-01T12:43:04;30.80;42.85
63051;SHT30;49136;47.416;19.402;2022-08-01T12:45:37;31.33;42.20
63051;SHT30;49136;47.416;19.402;2022-08-01T12:48:11;31.53;42.28
63051;SHT30;49136;47.416;19.402;2022-08-01T12:50:38;31.63;40.47
63051;SHT30;49136;47.416;19.402;2022-08-01T12:53:05;31.01;39.94
63051;SHT30;49136;47.416;19.402;2022-08-01T12:55:30;31.36;38.88
63051;SHT30;49136;47.416;19.402;2022-08-01T12:58:15;31.53;40.44
63051;SHT30;49136;47.416;19.402;2022-08-01T13:00:44;31.18;39.63
63051;SHT30;49136;47.416;19.402;2022-08-01T13:05:54;32.46;38.43
63051;SHT30;49136;47.416;19.402;2022-08-01T13:08:40;31.84;38.52
63051;SHT30;49136;47.416;19.402;2022-08-01T13:11:06;31.62;37.97
63051;SHT30;49136;47.416;19.402;2022-08-01T13:16:20;32.36;39.12
63051;SHT30;49136;47.416;19.402;2022-08-01T13:18:59;31.90;39.09
63051;SHT30;49136;47.416;19.402;2022-08-01T13:21:27;31.91;38.36
63051;SHT30;49136;47.416;19.402;2022-08-01T13:24:10;32.42;40.20
63051;SHT30;49136;47.416;19.402;2022-08-01T13:26:39;32.67;39.92
63051;SHT30;49136;47.416;19.402;2022-08-01T13:29:05;32.43;38.04
63051;SHT30;49136;47.416;19.402;2022-08-01T13:31:33;32.44;38.83
63051;SHT30;49136;47.416;19.402;2022-08-01T13:33:59;32.40;39.14
63051;SHT30;49136;47.416;19.402;2022-08-01T13:36:24;32.17;39.11
63051;SHT30;49136;47.416;19.402;2022-08-01T13:38:52;31.94;38.85
63051;SHT30;49136;47.416;19.402;2022-08-01T13:41:35;32.07;42.52
63051;SHT30;49136;47.416;19.402;2022-08-01T13:44:01;31.54;42.03
63051;SHT30;49136;47.416;19.402;2022-08-01T13:46:26;31.35;41.74
63051;SHT30;49136;47.416;19.402;2022-08-01T13:48:52;31.25;39.34
63051;SHT30;49136;47.416;19.402;2022-08-01T13:51:17;31.17;41.08
63051;SHT30;49136;47.416;19.402;2022-08-01T13:53:43;31.10;39.53
63051;SHT30;49136;47.416;19.402;2022-08-01T13:56:08;30.94;42.39
63051;SHT30;49136;47.416;19.402;2022-08-01T13:58:33;30.74;41.56
63051;SHT30;49136;47.416;19.402;2022-08-01T14:00:59;30.65;41.32
63051;SHT30;49136;47.416;19.402;2022-08-01T14:03:24;30.86;40.59
63051;SHT30;49136;47.416;19.402;2022-08-01T14:05:50;31.00;43.37
63051;SHT30;49136;47.416;19.402;2022-08-01T14:08:15;30.52;42.63
63051;SHT30;49136;47.416;19.402;2022-08-01T14:10:40;30.06;44.20
63051;SHT30;49136;47.416;19.402;2022-08-01T14:13:06;30.18;43.39
63051;SHT30;49136;47.416;19.402;2022-08-01T14:15:32;30.55;42.21
63051;SHT30;49136;47.416;19.402;2022-08-01T14:17:58;30.53;43.50
63051;SHT30;49136;47.416;19.402;2022-08-01T14:20:24;30.83;42.86
63051;SHT30;49136;47.416;19.402;2022-08-01T14:22:49;30.62;41.96
63051;SHT30;49136;47.416;19.402;2022-08-01T14:25:15;30.69;42.21
63051;SHT30;49136;47.416;19.402;2022-08-01T14:27:40;30.77;42.25
63051;SHT30;49136;47.416;19.402;2022-08-01T14:30:07;30.74;44.01
63051;SHT30;49136;47.416;19.402;2022-08-01T14:32:33;30.97;43.13
63051;SHT30;49136;47.416;19.402;2022-08-01T14:35:04;31.07;42.84
63051;SHT30;49136;47.416;19.402;2022-08-01T14:37:30;31.17;42.24
63051;SHT30;49136;47.416;19.402;2022-08-01T14:39:59;31.54;43.24
63051;SHT30;49136;47.416;19.402;2022-08-01T14:42:29;31.73;41.25
63051;SHT30;49136;47.416;19.402;2022-08-01T14:44:54;31.39;41.59
63051;SHT30;49136;47.416;19.402;2022-08-01T14:47:19;31.18;42.07
63051;SHT30;49136;47.416;19.402;2022-08-01T14:49:45;31.24;42.25
63051;SHT30;49136;47.416;19.402;2022-08-01T14:52:10;30.92;43.32
63051;SHT30;49136;47.416;19.402;2022-08-01T14:54:36;30.76;41.69
63051;SHT30;49136;47.416;19.402;2022-08-01T14:57:01;30.77;41.50
63051;SHT30;49136;47.416;19.402;2022-08-01T14:59:27;30.53;41.06
63051;SHT30;49136;47.416;19.402;2022-08-01T15:01:52;30.65;41.77
63051;SHT30;49136;47.416;19.402;2022-08-01T15:04:17;30.66;42.28
63051;SHT30;49136;47.416;19.402;2022-08-01T15:06:44;30.57;42.92
63051;SHT30;49136;47.416;19.402;2022-08-01T15:09:09;30.73;41.65
63051;SHT30;49136;47.416;19.402;2022-08-01T15:11:35;30.87;42.11
63051;SHT30;49136;47.416;19.402;2022-08-01T15:14:01;30.42;42.25
63051;SHT30;49136;47.416;19.402;2022-08-01T15:16:45;30.67;42.45
63051;SHT30;49136;47.416;19.402;2022-08-01T15:19:10;30.67;41.82
63051;SHT30;49136;47.416;19.402;2022-08-01T15:21:35;30.74;41.62
63051;SHT30;49136;47.416;19.402;2022-08-01T15:24:01;30.65;42.64
63051;SHT30;49136;47.416;19.402;2022-08-01T15:26:26;30.48;41.56
63051;SHT30;49136;47.416;19.402;2022-08-01T15:28:53;30.33;43.64
63051;SHT30;49136;47.416;19.402;2022-08-01T15:31:18;30.48;42.07
63051;SHT30;49136;47.416;19.402;2022-08-01T15:33:44;30.33;42.42
63051;SHT30;49136;47.416;19.402;2022-08-01T15:36:09;30.29;43.43
63051;SHT30;49136;47.416;19.402;2022-08-01T15:38:34;30.18;43.17
63051;SHT30;49136;47.416;19.402;2022-08-01T15:41:00;30.25;42.51
63051;SHT30;49136;47.416;19.402;2022-08-01T15:43:25;29.96;41.95
63051;SHT30;49136;47.416;19.402;2022-08-01T15:45:51;29.87;42.38
63051;SHT30;49136;47.416;19.402;2022-08-01T15:48:16;29.65;43.85